createdAt,value
2022-09-02T00:01:25.035Z,1.13
2022-09-02T00:03:28.598Z,1.13
2022-09-02T00:05:30.439Z,1.27
2022-09-02T00:07:32.873Z,1.67
2022-09-02T00:09:37.604Z,2.38
2022-09-02T00:11:41.539Z,3.08
2022-09-02T00:13:44.851Z,2.10
2022-09-02T00:15:56.637Z,2.17
2022-09-02T00:17:59.118Z,1.40
2022-09-02T00:20:00.642Z,1.25
2022-09-02T00:22:02.602Z,1.20
2022-09-02T00:24:05.682Z,1.45
2022-09-02T00:26:07.434Z,1.52
2022-09-02T00:28:08.941Z,2.60
2022-09-02T00:30:13.965Z,1.55
2022-09-02T00:32:15.588Z,2.20
2022-09-02T00:34:20.860Z,1.83
2022-09-02T00:36:22.628Z,3.15
2022-09-02T00:38:24.356Z,2.72
2022-09-02T00:40:27.980Z,1.83
2022-09-02T00:42:29.767Z,1.55
2022-09-02T00:44:34.722Z,1.98
2022-09-02T00:46:36.845Z,2.15
2022-09-02T00:48:46.248Z,1.77
2022-09-02T00:50:48.799Z,2.05
2022-09-02T00:52:58.949Z,2.15
2022-09-02T00:55:13.669Z,3.58
2022-09-02T00:57:19.783Z,1.65
2022-09-02T00:59:30.865Z,1.98
2022-09-02T01:01:33.048Z,1.50
2022-09-02T01:03:34.963Z,1.45
2022-09-02T01:05:44.918Z,2.15
2022-09-02T01:07:47.481Z,2.53
2022-09-02T01:09:50.509Z,1.33
2022-09-02T01:11:57.401Z,1.20
2022-09-02T01:13:59.623Z,2.03
2022-09-02T01:16:12.851Z,1.33
2022-09-02T01:18:18.980Z,1.65
2022-09-02T01:20:25.676Z,2.65
2022-09-02T01:22:31.180Z,1.20
2022-09-02T01:24:34.650Z,1.70
2022-09-02T01:26:36.401Z,1.42
2022-09-02T01:28:38.079Z,2.45
2022-09-02T01:30:43.248Z,1.77
2022-09-02T01:32:44.780Z,1.58
2022-09-02T01:34:46.846Z,1.40
2022-09-02T01:36:48.600Z,2.45
2022-09-02T01:38:52.424Z,1.50
2022-09-02T01:40:54.341Z,1.30
2022-09-02T01:43:27.390Z,1.63
2022-09-02T01:45:29.836Z,1.48
2022-09-02T01:47:34.915Z,1.30
2022-09-02T01:49:36.543Z,1.38
2022-09-02T01:51:38.195Z,1.63
2022-09-02T01:53:40.430Z,1.48
2022-09-02T01:55:42.561Z,2.80
2022-09-02T01:57:44.451Z,1.42
2022-09-02T01:59:50.917Z,1.67
2022-09-02T02:01:53.033Z,1.73
2022-09-02T02:03:56.076Z,2.85
2022-09-02T02:06:09.472Z,1.85
2022-09-02T02:08:12.459Z,2.17
2022-09-02T02:10:18.816Z,2.60
2022-09-02T02:12:21.232Z,1.23
2022-09-02T02:14:23.506Z,1.20
2022-09-02T02:16:25.524Z,1.48
2022-09-02T02:18:29.813Z,2.72
2022-09-02T02:20:31.552Z,1.42
2022-09-02T02:22:34.128Z,2.08
2022-09-02T02:24:36.200Z,1.25
2022-09-02T02:26:39.867Z,1.65
2022-09-02T02:28:43.904Z,1.55
2022-09-02T02:30:48.073Z,1.50
2022-09-02T02:32:49.993Z,1.75
2022-09-02T02:34:56.540Z,1.42
2022-09-02T02:36:58.209Z,2.20
2022-09-02T02:39:01.480Z,2.42
2022-09-02T02:41:05.912Z,2.30
2022-09-02T02:43:07.777Z,1.50
2022-09-02T02:45:15.331Z,1.67
2022-09-02T02:47:18.213Z,1.42
2022-09-02T02:49:20.532Z,2.78
2022-09-02T02:51:22.175Z,2.53
2022-09-02T02:53:25.218Z,1.42
2022-09-02T02:55:27.507Z,1.58
2022-09-02T02:57:30.821Z,2.55
2022-09-02T02:59:33.056Z,1.52
2022-09-02T03:01:35.082Z,2.42
2022-09-02T03:03:37.573Z,1.45
2022-09-02T03:05:43.528Z,1.95
2022-09-02T03:07:48.108Z,1.25
2022-09-02T03:09:51.494Z,1.40
2022-09-02T03:11:54.107Z,2.20
2022-09-02T03:13:56.704Z,1.40
2022-09-02T03:15:58.725Z,2.35
2022-09-02T03:18:00.910Z,1.75
2022-09-02T03:20:05.337Z,1.45
2022-09-02T03:22:11.695Z,1.25
2022-09-02T03:24:13.171Z,2.13
2022-09-02T03:26:22.281Z,3.80
2022-09-02T03:28:24.745Z,2.05
2022-09-02T03:30:29.972Z,1.73
2022-09-02T03:32:32.275Z,1.83
2022-09-02T03:34:37.571Z,1.83
2022-09-02T03:36:40.757Z,1.90
2022-09-02T03:38:44.421Z,1.98
2022-09-02T03:40:49.451Z,1.30
2022-09-02T03:42:59.256Z,2.75
2022-09-02T03:45:01.910Z,2.00
2022-09-02T03:47:03.997Z,1.88
2022-09-02T03:49:05.728Z,2.17
2022-09-02T03:51:08.460Z,1.27
2022-09-02T03:53:16.360Z,2.22
2022-09-02T03:55:25.581Z,1.92
2022-09-02T03:57:27.176Z,1.40
2022-09-02T03:59:28.930Z,1.30
2022-09-02T04:01:34.844Z,1.42
2022-09-02T04:03:40.198Z,1.23
2022-09-02T04:05:47.369Z,1.50
2022-09-02T04:07:51.969Z,1.92
2022-09-02T04:09:56.375Z,2.17
2022-09-02T04:11:58.083Z,1.55
2022-09-02T04:13:59.771Z,1.95
2022-09-02T04:16:11.349Z,1.60
2022-09-02T04:18:14.734Z,2.90
2022-09-02T04:20:18.026Z,1.67
2022-09-02T04:22:19.763Z,1.92
2022-09-02T04:24:21.304Z,1.90
2022-09-02T04:26:24.832Z,2.90
2022-09-02T04:28:29.273Z,2.05
2022-09-02T04:30:31.712Z,1.88
2022-09-02T04:32:39.769Z,1.58
2022-09-02T04:34:45.778Z,2.85
2022-09-02T04:36:53.253Z,2.13
2022-09-02T04:38:56.111Z,1.55
2022-09-02T04:41:02.101Z,1.73
2022-09-02T04:43:04.378Z,2.17
2022-09-02T04:45:08.821Z,2.15
2022-09-02T04:47:13.158Z,1.67
2022-09-02T04:49:19.036Z,2.17
2022-09-02T04:51:25.314Z,4.90
2022-09-02T04:53:30.500Z,1.52
2022-09-02T04:55:35.505Z,1.92
2022-09-02T04:57:37.937Z,2.67
2022-09-02T04:59:40.326Z,2.28
2022-09-02T05:01:45.346Z,1.63
2022-09-02T05:03:54.040Z,2.13
2022-09-02T05:06:02.773Z,3.05
2022-09-02T05:08:04.713Z,2.92
2022-09-02T05:10:11.004Z,3.20
2022-09-02T05:12:16.115Z,2.75
2022-09-02T05:14:24.674Z,1.95
2022-09-02T05:16:29.633Z,2.85
2022-09-02T05:18:33.136Z,2.20
2022-09-02T05:20:39.713Z,2.75
2022-09-02T05:22:43.236Z,2.35
2022-09-02T05:24:46.542Z,2.55
2022-09-02T05:26:51.022Z,2.65
2022-09-02T05:28:53.826Z,2.10
2022-09-02T05:30:55.686Z,4.93
2022-09-02T05:32:57.907Z,2.05
2022-09-02T05:35:02.261Z,4.78
2022-09-02T05:37:05.056Z,2.22
2022-09-02T05:39:09.335Z,2.60
2022-09-02T05:41:19.819Z,3.60
2022-09-02T05:43:23.128Z,3.55
2022-09-02T05:45:25.038Z,2.40
2022-09-02T05:47:27.280Z,2.58
2022-09-02T05:49:30.300Z,5.78
2022-09-02T05:51:43.099Z,6.57
2022-09-02T05:53:45.625Z,5.75
2022-09-02T05:55:48.088Z,7.63
2022-09-02T05:57:49.748Z,11.25
2022-09-02T05:59:56.162Z,11.65
2022-09-02T06:02:02.528Z,12.73
2022-09-02T06:04:06.210Z,20.95
2022-09-02T06:06:09.034Z,8.07
2022-09-02T06:08:14.280Z,9.68
2022-09-02T06:10:16.514Z,8.35
2022-09-02T06:12:20.396Z,10.63
2022-09-02T06:14:25.106Z,7.03
2022-09-02T06:16:28.074Z,7.90
2022-09-02T06:18:29.939Z,3.05
2022-09-02T06:20:32.702Z,6.88
2022-09-02T06:22:36.075Z,4.13
2022-09-02T06:24:37.833Z,4.50
2022-09-02T06:26:44.833Z,9.25
2022-09-02T06:28:46.629Z,9.10
2022-09-02T06:30:50.977Z,11.23
2022-09-02T06:32:57.238Z,4.35
2022-09-02T06:34:59.979Z,3.42
2022-09-02T06:37:02.685Z,3.67
2022-09-02T06:39:06.245Z,5.78
2022-09-02T06:41:11.806Z,4.10
2022-09-02T06:43:16.791Z,3.30
2022-09-02T06:45:42.807Z,2.78
2022-09-02T06:47:45.981Z,2.88
2022-09-02T06:49:49.802Z,2.72
2022-09-02T06:51:55.925Z,2.50
2022-09-02T06:54:05.359Z,2.10
2022-09-02T06:56:10.957Z,5.55
2022-09-02T06:58:15.018Z,3.22
2022-09-02T07:00:17.244Z,4.60
2022-09-02T07:02:18.789Z,3.95
2022-09-02T07:04:40.494Z,4.57
2022-09-02T07:06:48.234Z,3.47
2022-09-02T07:08:50.616Z,5.25
2022-09-02T07:10:52.294Z,3.50
2022-09-02T07:12:54.508Z,2.22
2022-09-02T07:14:56.131Z,2.05
2022-09-02T07:17:17.855Z,1.70
2022-09-02T07:19:24.786Z,2.35
2022-09-02T07:21:26.685Z,1.50
2022-09-02T07:23:28.432Z,1.63
2022-09-02T07:25:30.718Z,2.45
2022-09-02T07:27:34.811Z,2.97
2022-09-02T07:29:36.413Z,3.78
2022-09-02T07:31:40.975Z,1.40
2022-09-02T07:33:44.971Z,3.03
2022-09-02T07:35:53.237Z,2.83
2022-09-02T07:37:56.788Z,1.50
2022-09-02T07:39:58.679Z,2.92
2022-09-02T07:42:02.020Z,2.22
2022-09-02T07:44:05.967Z,3.60
2022-09-02T07:46:08.081Z,4.00
2022-09-02T07:48:10.920Z,1.40
2022-09-02T07:50:17.285Z,1.83
2022-09-02T07:52:22.398Z,2.08
2022-09-02T07:54:26.796Z,1.63
2022-09-02T07:56:29.380Z,1.42
2022-09-02T07:58:32.316Z,1.52
2022-09-02T08:00:37.052Z,2.28
2022-09-02T08:02:44.770Z,1.55
2022-09-02T08:04:51.742Z,2.10
2022-09-02T08:06:54.881Z,1.70
2022-09-02T08:08:56.415Z,2.88
2022-09-02T08:10:58.248Z,1.10
2022-09-02T08:13:05.585Z,1.95
2022-09-02T08:15:07.782Z,1.42
2022-09-02T08:17:09.733Z,1.13
2022-09-02T08:19:12.555Z,2.63
2022-09-02T08:21:14.797Z,1.20
2022-09-02T08:23:36.122Z,2.85
2022-09-02T08:25:38.239Z,2.95
2022-09-02T08:27:40.443Z,1.77
2022-09-02T08:29:42.813Z,1.40
2022-09-02T08:31:46.242Z,1.92
2022-09-02T08:33:48.262Z,1.83
2022-09-02T08:35:50.390Z,1.35
2022-09-02T08:37:52.064Z,1.77
2022-09-02T08:39:53.705Z,2.15
2022-09-02T08:42:22.218Z,2.38
2022-09-02T08:44:24.442Z,1.55
2022-09-02T08:46:28.886Z,1.90
2022-09-02T08:48:40.805Z,2.42
2022-09-02T08:50:45.528Z,2.00
2022-09-02T08:53:09.143Z,1.40
2022-09-02T08:55:18.880Z,2.53
2022-09-02T08:57:20.506Z,1.27
2022-09-02T08:59:26.528Z,1.83
2022-09-02T09:01:51.483Z,1.60
2022-09-02T09:04:06.142Z,1.83
2022-09-02T09:06:34.926Z,2.78
2022-09-02T09:08:41.503Z,2.05
2022-09-02T09:11:21.894Z,2.97
2022-09-02T09:13:59.699Z,1.52
2022-09-02T09:16:32.079Z,0.88
2022-09-02T09:18:41.351Z,1.15
2022-09-02T09:20:44.540Z,1.13
2022-09-02T09:22:51.952Z,1.10
2022-09-02T09:24:53.501Z,1.55
2022-09-02T09:26:55.503Z,3.17
2022-09-02T09:28:59.481Z,1.00
2022-09-02T09:31:01.352Z,1.27
2022-09-02T09:33:18.194Z,1.13
2022-09-02T09:35:20.173Z,1.00
2022-09-02T09:37:57.781Z,2.15
2022-09-02T09:40:00.901Z,1.05
2022-09-02T09:42:12.332Z,1.50
2022-09-02T09:44:38.793Z,1.38
2022-09-02T09:46:43.222Z,1.73
2022-09-02T09:48:49.700Z,0.88
2022-09-02T09:51:01.754Z,0.77
2022-09-02T09:53:34.143Z,2.42
2022-09-02T09:55:51.455Z,2.05
2022-09-02T09:57:54.453Z,0.98
2022-09-02T09:59:57.324Z,0.88
2022-09-02T10:01:59.069Z,0.80
2022-09-02T10:06:34.394Z,1.10
2022-09-02T10:08:54.169Z,2.28
2022-09-02T10:10:57.007Z,1.23
2022-09-02T10:13:16.601Z,1.45
2022-09-02T10:15:27.532Z,2.83
2022-09-02T10:17:54.564Z,1.00
2022-09-02T10:20:05.862Z,1.70
2022-09-02T10:22:13.655Z,1.85
2022-09-02T10:24:40.329Z,1.35
2022-09-02T10:26:52.510Z,1.50
2022-09-02T10:29:41.713Z,1.77
2022-09-02T10:32:09.816Z,1.30
2022-09-02T10:34:45.609Z,1.27
2022-09-02T10:37:06.004Z,1.00
2022-09-02T10:39:39.153Z,1.20
2022-09-02T10:41:48.724Z,1.95
2022-09-02T10:44:03.449Z,1.45
2022-09-02T10:46:08.868Z,1.98
2022-09-02T10:48:32.146Z,2.35
2022-09-02T10:50:50.061Z,1.05
2022-09-02T10:53:15.666Z,2.65
2022-09-02T10:55:28.934Z,1.05
2022-09-02T10:57:34.018Z,0.90
2022-09-02T10:59:41.322Z,0.93
2022-09-02T11:01:52.510Z,1.10
2022-09-02T11:04:22.645Z,1.30
2022-09-02T11:06:40.293Z,0.75
2022-09-02T11:08:55.801Z,1.42
2022-09-02T11:11:35.882Z,1.77
2022-09-02T11:13:47.449Z,1.00
2022-09-02T11:15:57.636Z,0.70
2022-09-02T11:18:08.406Z,1.67
2022-09-02T11:20:30.397Z,1.85
2022-09-02T11:22:42.315Z,1.63
2022-09-02T11:25:15.562Z,1.00
2022-09-02T11:27:43.379Z,1.50
2022-09-02T11:30:17.343Z,0.88
2022-09-02T11:32:28.100Z,1.65
2022-09-02T11:34:34.868Z,0.90
2022-09-02T11:36:42.683Z,0.85
2022-09-02T11:39:25.786Z,0.90
2022-09-02T11:42:11.878Z,2.40
2022-09-02T11:44:39.047Z,0.85
2022-09-02T11:46:54.659Z,1.65
2022-09-02T11:49:11.269Z,1.45
2022-09-02T11:51:45.543Z,2.45
2022-09-02T11:53:48.313Z,1.10
2022-09-02T11:56:05.665Z,1.65
2022-09-02T11:58:08.262Z,0.77
2022-09-02T12:00:24.920Z,1.00
2022-09-02T12:03:04.785Z,2.05
2022-09-02T12:05:35.338Z,1.85
2022-09-02T12:07:48.674Z,0.70
2022-09-02T12:09:57.005Z,1.02
2022-09-02T12:11:59.112Z,2.38
2022-09-02T12:14:02.882Z,1.08
2022-09-02T12:16:15.595Z,1.20
2022-09-02T12:18:31.282Z,0.80
2022-09-02T12:20:40.268Z,1.10
2022-09-02T12:22:43.227Z,1.02
2022-09-02T12:24:59.060Z,1.08
2022-09-02T12:27:06.460Z,1.08
2022-09-02T12:29:20.643Z,0.90
2022-09-02T12:31:43.486Z,6.00
2022-09-02T12:33:51.794Z,1.52
2022-09-02T12:35:54.255Z,1.83
2022-09-02T12:37:58.065Z,2.55
2022-09-02T12:40:12.939Z,1.30
2022-09-02T12:42:33.892Z,0.85
2022-09-02T12:45:12.855Z,1.00
2022-09-02T12:47:22.191Z,0.70
2022-09-02T12:49:33.431Z,0.98
2022-09-02T12:51:53.900Z,1.10
2022-09-02T12:53:55.662Z,1.70
2022-09-02T12:56:13.761Z,1.08
2022-09-02T12:58:22.049Z,1.42
2022-09-02T13:00:32.642Z,1.83
2022-09-02T13:02:57.366Z,1.45
2022-09-02T13:05:15.858Z,1.58
2022-09-02T13:07:27.889Z,1.20
2022-09-02T13:10:09.112Z,0.90
2022-09-02T13:12:49.870Z,1.10
2022-09-02T13:15:23.391Z,1.35
2022-09-02T13:17:55.990Z,1.88
2022-09-02T13:20:35.002Z,1.42
2022-09-02T13:23:00.692Z,1.52
2022-09-02T13:25:29.184Z,1.20
2022-09-02T13:27:40.016Z,1.40
2022-09-02T13:30:03.502Z,1.10
2022-09-02T13:32:15.766Z,0.90
2022-09-02T13:34:18.813Z,2.22
2022-09-02T13:36:30.783Z,1.58
2022-09-02T13:38:34.482Z,0.80
2022-09-02T13:40:38.015Z,1.05
2022-09-02T13:42:46.987Z,1.67
2022-09-02T13:44:48.577Z,1.45
2022-09-02T13:46:54.210Z,0.77
2022-09-02T13:48:55.986Z,2.05
2022-09-02T13:51:13.200Z,1.77
2022-09-02T13:53:45.467Z,1.05
2022-09-02T13:55:54.033Z,1.33
2022-09-02T13:58:00.375Z,0.90
2022-09-02T14:00:02.289Z,0.70
2022-09-02T14:02:32.206Z,2.42
2022-09-02T14:04:38.599Z,1.55
2022-09-02T14:06:47.685Z,1.20
2022-09-02T14:08:57.130Z,1.70
2022-09-02T14:11:00.681Z,1.25
2022-09-02T14:13:06.288Z,1.55
2022-09-02T14:15:13.072Z,1.85
2022-09-02T14:17:23.459Z,1.05
2022-09-02T14:19:28.893Z,1.95
2022-09-02T14:21:32.347Z,1.30
2022-09-02T14:23:38.687Z,1.35
2022-09-02T14:25:50.644Z,1.20
2022-09-02T14:27:55.457Z,1.38
2022-09-02T14:29:58.475Z,2.55
2022-09-02T14:32:11.461Z,1.05
2022-09-02T14:34:31.816Z,1.10
2022-09-02T14:36:38.968Z,0.95
2022-09-02T14:38:43.460Z,2.20
2022-09-02T14:40:45.177Z,0.95
2022-09-02T14:42:56.770Z,1.48
2022-09-02T14:44:59.585Z,1.52
2022-09-02T14:47:07.600Z,1.60
2022-09-02T14:49:17.317Z,0.80
2022-09-02T14:51:19.108Z,0.65
2022-09-02T14:53:23.066Z,1.10
2022-09-02T14:55:55.032Z,0.90
2022-09-02T14:58:03.299Z,1.48
2022-09-02T15:00:11.790Z,0.63
2022-09-02T15:02:31.358Z,1.00
2022-09-02T15:04:35.710Z,0.70
2022-09-02T15:06:37.318Z,1.75
2022-09-02T15:08:39.366Z,1.73
2022-09-02T15:10:42.498Z,1.15
2022-09-02T15:12:51.453Z,1.08
2022-09-02T15:14:53.980Z,1.33
2022-09-02T15:16:56.846Z,1.15
2022-09-02T15:18:58.580Z,1.70
2022-09-02T15:21:00.169Z,2.45
2022-09-02T15:23:03.163Z,1.80
2022-09-02T15:25:08.130Z,1.20
2022-09-02T15:27:13.819Z,1.13
2022-09-02T15:29:15.767Z,1.38
2022-09-02T15:31:17.791Z,1.05
2022-09-02T15:33:19.439Z,1.30
2022-09-02T15:35:21.732Z,1.67
2022-09-02T15:37:24.486Z,1.20
2022-09-02T15:39:27.071Z,1.00
2022-09-02T15:41:32.235Z,1.00
2022-09-02T15:43:35.031Z,0.93
2022-09-02T15:45:49.667Z,1.73
2022-09-02T15:47:51.287Z,1.20
2022-09-02T15:49:52.794Z,1.75
2022-09-02T15:51:55.427Z,1.20
2022-09-02T15:54:02.512Z,1.00
2022-09-02T15:56:04.224Z,0.98
2022-09-02T15:58:05.849Z,2.25
2022-09-02T16:00:09.601Z,1.00
2022-09-02T16:02:18.345Z,2.13
2022-09-02T16:04:20.305Z,1.73
2022-09-02T16:06:22.319Z,0.95
2022-09-02T16:08:24.046Z,1.17
2022-09-02T16:10:25.665Z,1.17
2022-09-02T16:12:27.169Z,2.13
2022-09-02T16:14:28.837Z,1.10
2022-09-02T16:16:32.355Z,1.42
2022-09-02T16:18:35.435Z,1.13
2022-09-02T16:20:37.149Z,2.70
2022-09-02T16:22:38.932Z,4.78
2022-09-02T16:24:40.532Z,3.22
2022-09-02T16:26:42.763Z,2.63
2022-09-02T16:28:45.660Z,5.38
2022-09-02T16:30:47.572Z,2.90
2022-09-02T16:32:52.734Z,1.77
2022-09-02T16:34:55.796Z,1.60
2022-09-02T16:37:00.328Z,2.28
2022-09-02T16:39:03.215Z,4.75
2022-09-02T16:41:07.423Z,3.95
2022-09-02T16:43:14.399Z,5.20
2022-09-02T16:45:16.303Z,3.80
2022-09-02T16:47:17.940Z,6.30
2022-09-02T16:49:25.609Z,6.18
2022-09-02T16:51:28.387Z,5.10
2022-09-02T16:53:31.188Z,5.35
2022-09-02T16:55:33.124Z,18.42
2022-09-02T16:57:45.953Z,15.25
2022-09-02T16:59:47.499Z,10.75
2022-09-02T17:01:49.258Z,6.82
2022-09-02T17:03:51.068Z,4.30
2022-09-02T17:05:52.709Z,7.53
2022-09-02T17:07:55.687Z,8.00
2022-09-02T17:09:57.213Z,13.85
2022-09-02T17:11:58.990Z,10.77
2022-09-02T17:14:09.304Z,6.55
2022-09-02T17:16:12.613Z,4.63
2022-09-02T17:18:16.851Z,3.75
2022-09-02T17:20:18.922Z,2.53
2022-09-02T17:22:20.466Z,4.20
2022-09-02T17:24:24.749Z,7.32
2022-09-02T17:26:28.484Z,8.50
2022-09-02T17:28:29.948Z,19.15
2022-09-02T17:30:31.878Z,15.38
2022-09-02T17:32:34.390Z,15.27
2022-09-02T17:34:41.018Z,14.23
2022-09-02T17:36:43.975Z,11.60
2022-09-02T17:38:45.988Z,7.75
2022-09-02T17:41:09.148Z,5.40
2022-09-02T17:43:13.572Z,3.60
2022-09-02T17:45:15.369Z,3.03
2022-09-02T17:47:25.031Z,1.90
2022-09-02T17:49:26.676Z,2.45
2022-09-02T17:51:32.119Z,1.40
2022-09-02T17:53:35.373Z,1.10
2022-09-02T17:55:37.113Z,1.63
2022-09-02T17:58:01.444Z,2.95
2022-09-02T18:00:11.834Z,0.85
2022-09-02T18:02:13.800Z,2.47
2022-09-02T18:04:33.577Z,1.40
2022-09-02T18:06:41.275Z,3.33
2022-09-02T18:08:57.800Z,1.42
2022-09-02T18:11:06.767Z,2.88
2022-09-02T18:13:14.587Z,1.67
2022-09-02T18:15:18.909Z,0.98
2022-09-02T18:17:35.166Z,0.77
2022-09-02T18:20:14.654Z,1.63
2022-09-02T18:22:50.603Z,2.05
2022-09-02T18:25:16.487Z,1.05
2022-09-02T18:27:30.452Z,1.95
2022-09-02T18:29:52.912Z,0.70
2022-09-02T18:32:00.510Z,0.88
2022-09-02T18:34:12.395Z,1.42
2022-09-02T18:36:38.728Z,0.80
2022-09-02T18:39:01.512Z,3.08
2022-09-02T18:41:13.597Z,1.73
2022-09-02T18:43:21.427Z,1.50
2022-09-02T18:45:33.935Z,1.45
2022-09-02T18:47:49.581Z,1.00
2022-09-02T18:49:55.267Z,1.02
2022-09-02T18:52:00.373Z,2.33
2022-09-02T18:54:15.070Z,0.95
2022-09-02T18:56:23.666Z,1.33
2022-09-02T18:58:51.567Z,0.80
2022-09-02T19:00:57.785Z,0.95
2022-09-02T19:03:01.946Z,1.45
2022-09-02T19:05:07.219Z,0.80
2022-09-02T19:07:31.417Z,1.02
2022-09-02T19:09:36.379Z,0.85
2022-09-02T19:11:39.116Z,1.10
2022-09-02T19:13:50.071Z,1.23
2022-09-02T19:15:52.002Z,1.45
2022-09-02T19:17:59.789Z,1.05
2022-09-02T19:20:01.898Z,1.98
2022-09-02T19:22:10.311Z,1.40
2022-09-02T19:24:17.141Z,1.20
2022-09-02T19:26:19.072Z,1.00
2022-09-02T19:28:25.137Z,1.33
2022-09-02T19:30:26.908Z,0.65
2022-09-02T19:32:33.202Z,2.85
2022-09-02T19:34:38.976Z,0.70
2022-09-02T19:36:46.954Z,1.17
2022-09-02T19:38:50.393Z,1.00
2022-09-02T19:40:54.953Z,1.48
2022-09-02T19:42:56.806Z,1.00
2022-09-02T19:44:58.502Z,0.90
2022-09-02T19:49:24.836Z,0.70
2022-09-02T19:51:27.319Z,1.27
2022-09-02T19:53:35.022Z,1.38
2022-09-02T19:55:40.732Z,1.85
2022-09-02T19:57:42.937Z,0.90
2022-09-02T19:59:44.536Z,1.70
2022-09-02T20:01:46.585Z,1.63
2022-09-02T20:03:48.158Z,1.27
2022-09-02T20:05:51.974Z,1.83
2022-09-02T20:07:55.080Z,1.15
2022-09-02T20:09:56.622Z,1.35
2022-09-02T20:11:58.382Z,1.23
2022-09-02T20:14:02.024Z,1.20
2022-09-02T20:16:07.573Z,2.08
2022-09-02T20:18:20.746Z,0.77
2022-09-02T20:20:23.887Z,1.30
2022-09-02T20:22:25.911Z,1.00
2022-09-02T20:24:31.618Z,0.88
2022-09-02T20:26:46.728Z,1.35
2022-09-02T20:29:04.417Z,1.60
2022-09-02T20:31:27.401Z,1.00
2022-09-02T20:33:39.370Z,0.80
2022-09-02T20:35:41.154Z,1.40
2022-09-02T20:38:18.313Z,0.73
2022-09-02T20:40:45.951Z,1.15
2022-09-02T20:43:09.352Z,0.80
2022-09-02T20:45:59.122Z,3.22
2022-09-02T20:48:13.101Z,0.90
2022-09-02T20:50:31.649Z,1.20
2022-09-02T20:52:57.546Z,1.08
2022-09-02T20:55:08.417Z,0.80
2022-09-02T20:57:25.569Z,1.25
2022-09-02T20:59:36.016Z,0.70
2022-09-02T21:01:40.169Z,1.27
2022-09-02T21:04:13.604Z,1.80
2022-09-02T21:06:20.896Z,2.40
2022-09-02T21:08:42.114Z,1.20
2022-09-02T21:10:53.664Z,0.90
2022-09-02T21:13:08.629Z,1.60
2022-09-02T21:15:31.168Z,1.10
2022-09-02T21:17:53.497Z,1.42
2022-09-02T21:19:59.915Z,2.53
2022-09-02T21:22:17.706Z,1.98
2022-09-02T21:24:25.723Z,1.20
2022-09-02T21:26:36.229Z,1.80
2022-09-02T21:29:07.472Z,0.90
2022-09-02T21:31:41.451Z,1.77
2022-09-02T21:33:45.428Z,1.65
2022-09-02T21:35:51.240Z,1.45
2022-09-02T21:38:31.769Z,1.50
2022-09-02T21:40:52.180Z,0.88
2022-09-02T21:43:20.215Z,2.13
2022-09-02T21:45:22.088Z,1.15
2022-09-02T21:47:36.634Z,1.45
2022-09-02T21:49:43.862Z,1.00
2022-09-02T21:52:26.855Z,1.20
2022-09-02T21:54:47.029Z,0.90
2022-09-02T21:57:05.654Z,1.63
2022-09-02T21:59:31.500Z,0.93
2022-09-02T22:01:49.267Z,0.93
2022-09-02T22:04:02.718Z,1.10
2022-09-02T22:06:07.556Z,1.00
2022-09-02T22:08:21.765Z,0.85
2022-09-02T22:10:44.706Z,1.10
2022-09-02T22:12:54.610Z,1.42
2022-09-02T22:15:10.771Z,6.07
2022-09-02T22:17:25.274Z,21.63
2022-09-02T22:19:31.127Z,17.33
2022-09-02T22:21:55.050Z,9.98
2022-09-02T22:24:02.100Z,5.82
2022-09-02T22:26:21.016Z,2.75
2022-09-02T22:28:37.003Z,2.45
2022-09-02T22:30:43.930Z,2.80
2022-09-02T22:33:06.964Z,1.77
2022-09-02T22:35:11.672Z,2.28
2022-09-02T22:37:18.844Z,1.10
2022-09-02T22:39:29.022Z,1.17
2022-09-02T22:41:36.594Z,1.90
2022-09-02T22:43:59.632Z,1.38
2022-09-02T22:46:32.364Z,1.05
2022-09-02T22:48:56.629Z,0.93
2022-09-02T22:51:22.458Z,0.90
2022-09-02T22:53:24.038Z,1.35
2022-09-02T22:55:55.045Z,2.25
2022-09-02T22:58:23.411Z,4.70
2022-09-02T23:00:26.649Z,8.73
2022-09-02T23:02:40.586Z,5.68
2022-09-02T23:04:51.268Z,5.65
2022-09-02T23:06:55.214Z,3.50
2022-09-02T23:09:10.183Z,2.97
2022-09-02T23:11:28.031Z,2.67
2022-09-02T23:13:57.342Z,1.50
2022-09-02T23:16:27.746Z,1.40
2022-09-02T23:18:58.599Z,2.28
2022-09-02T23:21:16.916Z,1.00
2022-09-02T23:23:49.285Z,1.25
2022-09-02T23:26:10.830Z,1.15
2022-09-02T23:28:34.030Z,1.98
2022-09-02T23:30:43.742Z,2.58
2022-09-02T23:33:43.066Z,1.27
2022-09-02T23:35:59.893Z,2.03
2022-09-02T23:38:33.207Z,1.08
2022-09-02T23:40:54.177Z,1.52
2022-09-02T23:42:57.626Z,2.92
2022-09-02T23:45:04.372Z,1.70
2022-09-02T23:47:12.133Z,0.98
2022-09-02T23:49:38.354Z,1.27
2022-09-02T23:51:51.471Z,1.30
2022-09-02T23:54:12.112Z,1.20
2022-09-02T23:56:33.652Z,1.73
2022-09-02T23:58:53.425Z,1.60
